sensor_id;sensor_type;location;lat;lon;timestamp;P1;durP1;ratioP1;P2;durP2;ratioP2
57055;SDS011;42945;51.718;5.324;2023-04-24T00:05:07;24.08;;;12.90;;
57055;SDS011;42945;51.718;5.324;2023-04-24T00:10:56;27.38;;;14.75;;
57055;SDS011;42945;51.718;5.324;2023-04-24T00:20:21;40.03;;;19.52;;
57055;SDS011;42945;51.718;5.324;2023-04-24T00:26:10;44.25;;;20.83;;
57055;SDS011;42945;51.718;5.324;2023-04-24T00:31:57;47.33;;;21.13;;
57055;SDS011;42945;51.718;5.324;2023-04-24T00:37:46;38.72;;;20.33;;
57055;SDS011;42945;51.718;5.324;2023-04-24T00:43:34;35.03;;;18.97;;
57055;SDS011;42945;51.718;5.324;2023-04-24T00:49:22;33.75;;;18.17;;
57055;SDS011;42945;51.718;5.324;2023-04-24T00:55:10;35.35;;;18.40;;
57055;SDS011;42945;51.718;5.324;2023-04-24T01:00:58;35.42;;;17.33;;
57055;SDS011;42945;51.718;5.324;2023-04-24T01:06:48;31.88;;;18.45;;
57055;SDS011;42945;51.718;5.324;2023-04-24T01:12:37;31.05;;;17.45;;
57055;SDS011;42945;51.718;5.324;2023-04-24T01:22:14;36.17;;;20.63;;
57055;SDS011;42945;51.718;5.324;2023-04-24T01:28:04;37.95;;;23.38;;
57055;SDS011;42945;51.718;5.324;2023-04-24T01:33:52;40.92;;;22.80;;
57055;SDS011;42945;51.718;5.324;2023-04-24T01:39:41;42.85;;;23.33;;
57055;SDS011;42945;51.718;5.324;2023-04-24T01:45:29;39.17;;;22.80;;
57055;SDS011;42945;51.718;5.324;2023-04-24T01:51:17;38.13;;;20.90;;
57055;SDS011;42945;51.718;5.324;2023-04-24T01:57:06;32.95;;;16.67;;
57055;SDS011;42945;51.718;5.324;2023-04-24T02:02:55;34.53;;;18.63;;
57055;SDS011;42945;51.718;5.324;2023-04-24T02:08:43;36.22;;;19.58;;
57055;SDS011;42945;51.718;5.324;2023-04-24T02:14:32;42.78;;;23.48;;
57055;SDS011;42945;51.718;5.324;2023-04-24T02:23:54;46.25;;;23.95;;
57055;SDS011;42945;51.718;5.324;2023-04-24T02:29:42;42.67;;;22.35;;
57055;SDS011;42945;51.718;5.324;2023-04-24T02:35:30;44.33;;;25.05;;
57055;SDS011;42945;51.718;5.324;2023-04-24T02:41:18;49.33;;;25.38;;
57055;SDS011;42945;51.718;5.324;2023-04-24T02:47:06;44.10;;;23.38;;
57055;SDS011;42945;51.718;5.324;2023-04-24T02:52:55;48.78;;;25.08;;
57055;SDS011;42945;51.718;5.324;2023-04-24T02:58:43;49.72;;;26.45;;
57055;SDS011;42945;51.718;5.324;2023-04-24T03:04:33;49.95;;;23.35;;
57055;SDS011;42945;51.718;5.324;2023-04-24T03:10:20;56.15;;;29.80;;
57055;SDS011;42945;51.718;5.324;2023-04-24T03:16:10;47.55;;;23.65;;
57055;SDS011;42945;51.718;5.324;2023-04-24T03:25:27;44.17;;;23.00;;
57055;SDS011;42945;51.718;5.324;2023-04-24T03:31:15;40.85;;;23.20;;
57055;SDS011;42945;51.718;5.324;2023-04-24T03:37:03;43.90;;;21.15;;
57055;SDS011;42945;51.718;5.324;2023-04-24T03:42:51;43.20;;;22.90;;
57055;SDS011;42945;51.718;5.324;2023-04-24T03:48:39;41.58;;;22.15;;
57055;SDS011;42945;51.718;5.324;2023-04-24T03:54:27;37.00;;;21.13;;
57055;SDS011;42945;51.718;5.324;2023-04-24T04:00:16;39.60;;;19.75;;
57055;SDS011;42945;51.718;5.324;2023-04-24T04:06:05;42.40;;;22.38;;
57055;SDS011;42945;51.718;5.324;2023-04-24T04:11:54;39.15;;;20.45;;
57055;SDS011;42945;51.718;5.324;2023-04-24T04:17:41;38.95;;;21.20;;
57055;SDS011;42945;51.718;5.324;2023-04-24T04:23:28;32.80;;;16.10;;
57055;SDS011;42945;51.718;5.324;2023-04-24T04:29:17;36.05;;;19.13;;
57055;SDS011;42945;51.718;5.324;2023-04-24T04:35:09;31.08;;;16.90;;
57055;SDS011;42945;51.718;5.324;2023-04-24T04:40:58;31.50;;;16.77;;
57055;SDS011;42945;51.718;5.324;2023-04-24T04:46:47;25.33;;;12.93;;
57055;SDS011;42945;51.718;5.324;2023-04-24T04:52:36;14.38;;;8.20;;
57055;SDS011;42945;51.718;5.324;2023-04-24T04:58:25;19.38;;;9.05;;
57055;SDS011;42945;51.718;5.324;2023-04-24T05:04:13;13.27;;;7.53;;
57055;SDS011;42945;51.718;5.324;2023-04-24T05:10:02;15.13;;;6.75;;
57055;SDS011;42945;51.718;5.324;2023-04-24T05:15:50;10.73;;;5.80;;
57055;SDS011;42945;51.718;5.324;2023-04-24T05:21:39;4.35;;;2.22;;
57055;SDS011;42945;51.718;5.324;2023-04-24T05:27:29;2.35;;;1.02;;
57055;SDS011;42945;51.718;5.324;2023-04-24T05:33:16;4.03;;;0.63;;
57055;SDS011;42945;51.718;5.324;2023-04-24T05:39:05;5.47;;;0.95;;
57055;SDS011;42945;51.718;5.324;2023-04-24T05:44:53;5.28;;;1.00;;
57055;SDS011;42945;51.718;5.324;2023-04-24T05:50:41;2.83;;;1.40;;
57055;SDS011;42945;51.718;5.324;2023-04-24T05:56:29;3.45;;;0.90;;
57055;SDS011;42945;51.718;5.324;2023-04-24T06:02:19;4.90;;;1.40;;
57055;SDS011;42945;51.718;5.324;2023-04-24T06:08:07;3.35;;;1.13;;
57055;SDS011;42945;51.718;5.324;2023-04-24T06:13:55;1.05;;;0.80;;
57055;SDS011;42945;51.718;5.324;2023-04-24T06:19:43;3.05;;;1.08;;
57055;SDS011;42945;51.718;5.324;2023-04-24T06:29:25;4.00;;;2.10;;
57055;SDS011;42945;51.718;5.324;2023-04-24T06:35:13;4.55;;;1.58;;
57055;SDS011;42945;51.718;5.324;2023-04-24T06:41:02;4.63;;;2.53;;
57055;SDS011;42945;51.718;5.324;2023-04-24T06:46:51;10.68;;;4.95;;
57055;SDS011;42945;51.718;5.324;2023-04-24T06:52:40;15.35;;;5.60;;
57055;SDS011;42945;51.718;5.324;2023-04-24T06:58:28;12.88;;;6.32;;
57055;SDS011;42945;51.718;5.324;2023-04-24T07:04:18;27.85;;;9.80;;
57055;SDS011;42945;51.718;5.324;2023-04-24T07:10:06;13.18;;;5.65;;
57055;SDS011;42945;51.718;5.324;2023-04-24T07:15:56;14.20;;;6.03;;
57055;SDS011;42945;51.718;5.324;2023-04-24T07:21:44;15.45;;;7.20;;
57055;SDS011;42945;51.718;5.324;2023-04-24T07:31:28;25.33;;;9.32;;
57055;SDS011;42945;51.718;5.324;2023-04-24T07:37:15;16.52;;;7.57;;
57055;SDS011;42945;51.718;5.324;2023-04-24T07:43:04;17.27;;;6.32;;
57055;SDS011;42945;51.718;5.324;2023-04-24T07:48:53;23.13;;;7.05;;
57055;SDS011;42945;51.718;5.324;2023-04-24T07:54:41;23.20;;;5.45;;
57055;SDS011;42945;51.718;5.324;2023-04-24T08:00:30;17.83;;;4.60;;
57055;SDS011;42945;51.718;5.324;2023-04-24T08:05:30;23.83;;;5.95;;
57055;SDS011;42945;51.718;5.324;2023-04-24T08:07:56;22.20;;;5.72;;
57055;SDS011;42945;51.718;5.324;2023-04-24T08:10:22;19.48;;;5.90;;
57055;SDS011;42945;51.718;5.324;2023-04-24T08:12:47;21.40;;;5.30;;
57055;SDS011;42945;51.718;5.324;2023-04-24T08:15:13;17.15;;;4.80;;
57055;SDS011;42945;51.718;5.324;2023-04-24T08:17:38;17.30;;;3.90;;
57055;SDS011;42945;51.718;5.324;2023-04-24T08:20:04;13.90;;;3.45;;
57055;SDS011;42945;51.718;5.324;2023-04-24T08:22:30;12.73;;;3.55;;
57055;SDS011;42945;51.718;5.324;2023-04-24T08:24:55;14.65;;;3.50;;
57055;SDS011;42945;51.718;5.324;2023-04-24T08:27:22;13.77;;;2.80;;
57055;SDS011;42945;51.718;5.324;2023-04-24T08:29:48;17.83;;;3.70;;
57055;SDS011;42945;51.718;5.324;2023-04-24T08:32:13;13.23;;;2.97;;
57055;SDS011;42945;51.718;5.324;2023-04-24T08:34:38;22.20;;;3.25;;
57055;SDS011;42945;51.718;5.324;2023-04-24T08:37:03;9.55;;;2.83;;
57055;SDS011;42945;51.718;5.324;2023-04-24T08:39:29;15.93;;;4.65;;
57055;SDS011;42945;51.718;5.324;2023-04-24T08:41:55;18.35;;;3.25;;
57055;SDS011;42945;51.718;5.324;2023-04-24T08:44:20;20.20;;;3.20;;
57055;SDS011;42945;51.718;5.324;2023-04-24T08:46:47;22.27;;;3.58;;
57055;SDS011;42945;51.718;5.324;2023-04-24T08:49:14;24.08;;;3.03;;
57055;SDS011;42945;51.718;5.324;2023-04-24T08:51:44;13.00;;;2.67;;
57055;SDS011;42945;51.718;5.324;2023-04-24T08:54:12;21.90;;;2.92;;
57055;SDS011;42945;51.718;5.324;2023-04-24T08:56:38;17.77;;;2.63;;
57055;SDS011;42945;51.718;5.324;2023-04-24T08:59:08;14.65;;;3.03;;
57055;SDS011;42945;51.718;5.324;2023-04-24T09:01:34;17.05;;;3.40;;
57055;SDS011;42945;51.718;5.324;2023-04-24T09:59:23;9.75;;;2.00;;
57055;SDS011;42945;51.718;5.324;2023-04-24T10:01:49;9.27;;;2.00;;
57055;SDS011;42945;51.718;5.324;2023-04-24T10:04:15;4.20;;;1.77;;
57055;SDS011;42945;51.718;5.324;2023-04-24T10:06:52;11.10;;;1.63;;
57055;SDS011;42945;51.718;5.324;2023-04-24T10:09:20;11.90;;;2.30;;
57055;SDS011;42945;51.718;5.324;2023-04-24T10:11:49;7.30;;;1.75;;
57055;SDS011;42945;51.718;5.324;2023-04-24T10:14:20;9.57;;;1.42;;
57055;SDS011;42945;51.718;5.324;2023-04-24T10:16:47;6.15;;;1.17;;
57055;SDS011;42945;51.718;5.324;2023-04-24T10:19:16;5.60;;;1.20;;
57055;SDS011;42945;51.718;5.324;2023-04-24T10:21:43;11.48;;;1.30;;
57055;SDS011;42945;51.718;5.324;2023-04-24T10:24:12;3.60;;;0.80;;
57055;SDS011;42945;51.718;5.324;2023-04-24T10:26:40;5.22;;;0.93;;
57055;SDS011;42945;51.718;5.324;2023-04-24T10:29:06;2.65;;;0.82;;
57055;SDS011;42945;51.718;5.324;2023-04-24T10:31:35;2.25;;;0.77;;
57055;SDS011;42945;51.718;5.324;2023-04-24T10:34:03;2.40;;;0.70;;
57055;SDS011;42945;51.718;5.324;2023-04-24T10:36:30;3.35;;;0.90;;
57055;SDS011;42945;51.718;5.324;2023-04-24T10:38:57;4.53;;;0.73;;
57055;SDS011;42945;51.718;5.324;2023-04-24T10:41:25;3.83;;;0.57;;
57055;SDS011;42945;51.718;5.324;2023-04-24T10:44:10;3.85;;;0.70;;
57055;SDS011;42945;51.718;5.324;2023-04-24T10:46:38;4.95;;;0.60;;
57055;SDS011;42945;51.718;5.324;2023-04-24T10:49:05;4.60;;;0.90;;
57055;SDS011;42945;51.718;5.324;2023-04-24T10:51:48;6.72;;;0.70;;
57055;SDS011;42945;51.718;5.324;2023-04-24T10:54:24;6.15;;;0.60;;
57055;SDS011;42945;51.718;5.324;2023-04-24T10:56:53;1.52;;;0.50;;
57055;SDS011;42945;51.718;5.324;2023-04-24T10:59:38;2.20;;;0.50;;
57055;SDS011;42945;51.718;5.324;2023-04-24T12:10:40;4.93;;;0.95;;
57055;SDS011;42945;51.718;5.324;2023-04-24T12:13:05;7.22;;;0.95;;
57055;SDS011;42945;51.718;5.324;2023-04-24T12:15:35;6.07;;;0.85;;
57055;SDS011;42945;51.718;5.324;2023-04-24T12:18:00;9.75;;;1.13;;
57055;SDS011;42945;51.718;5.324;2023-04-24T12:20:29;3.10;;;0.85;;
57055;SDS011;42945;51.718;5.324;2023-04-24T12:22:56;6.95;;;0.85;;
57055;SDS011;42945;51.718;5.324;2023-04-24T12:25:26;8.15;;;1.30;;
57055;SDS011;42945;51.718;5.324;2023-04-24T12:27:54;5.25;;;1.10;;
57055;SDS011;42945;51.718;5.324;2023-04-24T12:30:40;10.27;;;1.30;;
57055;SDS011;42945;51.718;5.324;2023-04-24T12:33:05;4.38;;;1.20;;
57055;SDS011;42945;51.718;5.324;2023-04-24T12:35:31;4.78;;;1.20;;
57055;SDS011;42945;51.718;5.324;2023-04-24T12:38:11;7.28;;;1.30;;
57055;SDS011;42945;51.718;5.324;2023-04-24T12:40:38;6.05;;;1.15;;
57055;SDS011;42945;51.718;5.324;2023-04-24T12:43:20;9.75;;;1.10;;
57055;SDS011;42945;51.718;5.324;2023-04-24T12:45:45;6.15;;;1.10;;
57055;SDS011;42945;51.718;5.324;2023-04-24T12:48:12;4.35;;;1.00;;
57055;SDS011;42945;51.718;5.324;2023-04-24T12:50:39;9.05;;;1.27;;
57055;SDS011;42945;51.718;5.324;2023-04-24T12:53:04;7.57;;;1.33;;
57055;SDS011;42945;51.718;5.324;2023-04-24T12:55:31;6.45;;;0.98;;
57055;SDS011;42945;51.718;5.324;2023-04-24T12:57:56;7.53;;;0.90;;
57055;SDS011;42945;51.718;5.324;2023-04-24T13:00:23;5.35;;;1.20;;
57055;SDS011;42945;51.718;5.324;2023-04-24T13:02:48;8.20;;;1.33;;
57055;SDS011;42945;51.718;5.324;2023-04-24T13:05:14;4.93;;;0.95;;
57055;SDS011;42945;51.718;5.324;2023-04-24T13:07:40;5.47;;;0.85;;
57055;SDS011;42945;51.718;5.324;2023-04-24T13:10:06;4.85;;;0.80;;
57055;SDS011;42945;51.718;5.324;2023-04-24T13:12:32;5.05;;;1.25;;
57055;SDS011;42945;51.718;5.324;2023-04-24T13:14:57;4.18;;;1.10;;
57055;SDS011;42945;51.718;5.324;2023-04-24T13:17:23;5.28;;;1.35;;
57055;SDS011;42945;51.718;5.324;2023-04-24T13:19:50;7.60;;;1.10;;
57055;SDS011;42945;51.718;5.324;2023-04-24T13:22:16;8.52;;;1.67;;
57055;SDS011;42945;51.718;5.324;2023-04-24T13:24:43;4.55;;;1.02;;
57055;SDS011;42945;51.718;5.324;2023-04-24T13:27:09;9.60;;;1.38;;
57055;SDS011;42945;51.718;5.324;2023-04-24T13:29:34;4.82;;;1.25;;
57055;SDS011;42945;51.718;5.324;2023-04-24T13:32:00;6.53;;;1.30;;
57055;SDS011;42945;51.718;5.324;2023-04-24T13:34:25;3.25;;;1.17;;
57055;SDS011;42945;51.718;5.324;2023-04-24T13:36:52;4.47;;;1.05;;
57055;SDS011;42945;51.718;5.324;2023-04-24T13:39:20;2.30;;;0.82;;
57055;SDS011;42945;51.718;5.324;2023-04-24T13:41:46;2.78;;;0.80;;
57055;SDS011;42945;51.718;5.324;2023-04-24T13:44:17;5.72;;;1.10;;
57055;SDS011;42945;51.718;5.324;2023-04-24T13:46:45;6.75;;;1.10;;
57055;SDS011;42945;51.718;5.324;2023-04-24T13:49:15;6.15;;;1.10;;
57055;SDS011;42945;51.718;5.324;2023-04-24T13:51:41;2.50;;;0.93;;
57055;SDS011;42945;51.718;5.324;2023-04-24T13:54:07;6.18;;;1.30;;
57055;SDS011;42945;51.718;5.324;2023-04-24T13:56:34;10.30;;;1.30;;
57055;SDS011;42945;51.718;5.324;2023-04-24T13:59:00;6.05;;;1.60;;
57055;SDS011;42945;51.718;5.324;2023-04-24T14:01:25;7.80;;;1.30;;
57055;SDS011;42945;51.718;5.324;2023-04-24T14:03:52;5.25;;;1.10;;
57055;SDS011;42945;51.718;5.324;2023-04-24T14:06:18;7.65;;;1.40;;
57055;SDS011;42945;51.718;5.324;2023-04-24T14:08:44;4.97;;;1.35;;
57055;SDS011;42945;51.718;5.324;2023-04-24T14:11:10;6.43;;;1.50;;
57055;SDS011;42945;51.718;5.324;2023-04-24T14:13:36;6.13;;;1.38;;
57055;SDS011;42945;51.718;5.324;2023-04-24T14:16:02;5.15;;;1.42;;
57055;SDS011;42945;51.718;5.324;2023-04-24T14:18:28;6.18;;;1.70;;
57055;SDS011;42945;51.718;5.324;2023-04-24T14:20:53;6.68;;;1.90;;
57055;SDS011;42945;51.718;5.324;2023-04-24T14:23:19;11.80;;;2.20;;
57055;SDS011;42945;51.718;5.324;2023-04-24T14:25:44;6.55;;;1.92;;
57055;SDS011;42945;51.718;5.324;2023-04-24T14:28:10;6.93;;;1.90;;
57055;SDS011;42945;51.718;5.324;2023-04-24T14:30:36;6.25;;;2.17;;
57055;SDS011;42945;51.718;5.324;2023-04-24T14:33:02;9.98;;;2.08;;
57055;SDS011;42945;51.718;5.324;2023-04-24T14:35:28;6.57;;;1.63;;
57055;SDS011;42945;51.718;5.324;2023-04-24T14:37:56;5.90;;;1.90;;
57055;SDS011;42945;51.718;5.324;2023-04-24T14:40:21;7.55;;;1.40;;
57055;SDS011;42945;51.718;5.324;2023-04-24T14:42:47;6.40;;;1.65;;
57055;SDS011;42945;51.718;5.324;2023-04-24T14:45:12;8.38;;;1.65;;
57055;SDS011;42945;51.718;5.324;2023-04-24T14:47:37;8.02;;;1.80;;
57055;SDS011;42945;51.718;5.324;2023-04-24T14:50:03;4.18;;;1.40;;
57055;SDS011;42945;51.718;5.324;2023-04-24T14:52:28;5.50;;;1.45;;
57055;SDS011;42945;51.718;5.324;2023-04-24T14:54:54;8.10;;;2.05;;
57055;SDS011;42945;51.718;5.324;2023-04-24T14:57:20;5.22;;;2.00;;
57055;SDS011;42945;51.718;5.324;2023-04-24T14:59:46;10.38;;;2.80;;
57055;SDS011;42945;51.718;5.324;2023-04-24T15:02:11;8.90;;;2.83;;
57055;SDS011;42945;51.718;5.324;2023-04-24T15:04:36;8.98;;;2.33;;
57055;SDS011;42945;51.718;5.324;2023-04-24T15:07:03;10.50;;;2.50;;
57055;SDS011;42945;51.718;5.324;2023-04-24T15:09:28;7.40;;;2.33;;
57055;SDS011;42945;51.718;5.324;2023-04-24T15:11:56;10.75;;;2.85;;
57055;SDS011;42945;51.718;5.324;2023-04-24T15:14:22;12.88;;;2.42;;
57055;SDS011;42945;51.718;5.324;2023-04-24T15:16:47;11.85;;;3.03;;
57055;SDS011;42945;51.718;5.324;2023-04-24T15:19:13;8.82;;;2.70;;
57055;SDS011;42945;51.718;5.324;2023-04-24T15:21:38;10.23;;;3.00;;
57055;SDS011;42945;51.718;5.324;2023-04-24T15:24:06;13.23;;;2.53;;
57055;SDS011;42945;51.718;5.324;2023-04-24T15:26:31;9.93;;;2.90;;
57055;SDS011;42945;51.718;5.324;2023-04-24T15:28:57;7.22;;;2.22;;
57055;SDS011;42945;51.718;5.324;2023-04-24T15:31:23;6.68;;;1.77;;
57055;SDS011;42945;51.718;5.324;2023-04-24T15:33:49;10.32;;;1.92;;
57055;SDS011;42945;51.718;5.324;2023-04-24T15:36:15;11.52;;;2.05;;
57055;SDS011;42945;51.718;5.324;2023-04-24T15:38:42;15.75;;;2.35;;
57055;SDS011;42945;51.718;5.324;2023-04-24T15:41:09;8.73;;;2.10;;
57055;SDS011;42945;51.718;5.324;2023-04-24T15:43:34;7.78;;;2.28;;
57055;SDS011;42945;51.718;5.324;2023-04-24T15:46:00;14.55;;;2.40;;
57055;SDS011;42945;51.718;5.324;2023-04-24T15:48:29;12.75;;;2.30;;
57055;SDS011;42945;51.718;5.324;2023-04-24T15:50:55;6.32;;;1.67;;
57055;SDS011;42945;51.718;5.324;2023-04-24T15:53:20;10.32;;;2.65;;
57055;SDS011;42945;51.718;5.324;2023-04-24T15:55:49;12.25;;;2.50;;
57055;SDS011;42945;51.718;5.324;2023-04-24T15:58:15;10.30;;;2.50;;
57055;SDS011;42945;51.718;5.324;2023-04-24T16:00:41;9.68;;;2.13;;
57055;SDS011;42945;51.718;5.324;2023-04-24T16:03:06;12.85;;;2.75;;
57055;SDS011;42945;51.718;5.324;2023-04-24T16:05:32;7.93;;;2.53;;
57055;SDS011;42945;51.718;5.324;2023-04-24T16:07:57;16.33;;;3.47;;
57055;SDS011;42945;51.718;5.324;2023-04-24T16:10:25;11.00;;;3.00;;
57055;SDS011;42945;51.718;5.324;2023-04-24T16:12:50;9.98;;;2.90;;
57055;SDS011;42945;51.718;5.324;2023-04-24T16:15:17;13.60;;;2.75;;
57055;SDS011;42945;51.718;5.324;2023-04-24T16:17:42;8.77;;;2.50;;
57055;SDS011;42945;51.718;5.324;2023-04-24T16:20:08;13.93;;;2.85;;
57055;SDS011;42945;51.718;5.324;2023-04-24T16:22:33;10.55;;;2.35;;
57055;SDS011;42945;51.718;5.324;2023-04-24T16:24:59;8.55;;;2.50;;
57055;SDS011;42945;51.718;5.324;2023-04-24T16:27:25;12.02;;;2.85;;
57055;SDS011;42945;51.718;5.324;2023-04-24T16:29:50;11.73;;;2.90;;
57055;SDS011;42945;51.718;5.324;2023-04-24T16:32:16;12.77;;;2.88;;
57055;SDS011;42945;51.718;5.324;2023-04-24T16:34:41;19.85;;;3.20;;
57055;SDS011;42945;51.718;5.324;2023-04-24T16:37:06;7.93;;;2.85;;
57055;SDS011;42945;51.718;5.324;2023-04-24T16:39:32;11.30;;;2.20;;
57055;SDS011;42945;51.718;5.324;2023-04-24T16:41:58;11.23;;;2.58;;
57055;SDS011;42945;51.718;5.324;2023-04-24T16:44:23;10.50;;;2.85;;
57055;SDS011;42945;51.718;5.324;2023-04-24T16:46:49;10.75;;;2.72;;
57055;SDS011;42945;51.718;5.324;2023-04-24T16:49:14;9.60;;;2.25;;
57055;SDS011;42945;51.718;5.324;2023-04-24T16:51:39;9.32;;;2.30;;
57055;SDS011;42945;51.718;5.324;2023-04-24T16:54:05;10.15;;;1.83;;
57055;SDS011;42945;51.718;5.324;2023-04-24T16:56:30;11.60;;;2.60;;
57055;SDS011;42945;51.718;5.324;2023-04-24T16:58:56;10.20;;;2.30;;
57055;SDS011;42945;51.718;5.324;2023-04-24T17:01:22;9.95;;;2.55;;
57055;SDS011;42945;51.718;5.324;2023-04-24T17:03:48;9.98;;;2.85;;
57055;SDS011;42945;51.718;5.324;2023-04-24T17:06:13;10.57;;;2.83;;
57055;SDS011;42945;51.718;5.324;2023-04-24T17:08:38;12.88;;;2.75;;
57055;SDS011;42945;51.718;5.324;2023-04-24T17:11:04;13.10;;;3.30;;
57055;SDS011;42945;51.718;5.324;2023-04-24T17:13:29;12.70;;;4.10;;
57055;SDS011;42945;51.718;5.324;2023-04-24T17:15:54;16.83;;;3.65;;
57055;SDS011;42945;51.718;5.324;2023-04-24T17:18:20;16.95;;;3.60;;
57055;SDS011;42945;51.718;5.324;2023-04-24T17:20:45;12.38;;;3.60;;
57055;SDS011;42945;51.718;5.324;2023-04-24T17:23:10;17.30;;;3.35;;
57055;SDS011;42945;51.718;5.324;2023-04-24T17:25:37;16.80;;;4.07;;
57055;SDS011;42945;51.718;5.324;2023-04-24T17:28:03;14.82;;;4.13;;
57055;SDS011;42945;51.718;5.324;2023-04-24T17:30:42;14.55;;;4.07;;
57055;SDS011;42945;51.718;5.324;2023-04-24T17:33:08;15.20;;;3.35;;
57055;SDS011;42945;51.718;5.324;2023-04-24T17:35:33;12.50;;;3.50;;
57055;SDS011;42945;51.718;5.324;2023-04-24T17:37:58;9.38;;;2.40;;
57055;SDS011;42945;51.718;5.324;2023-04-24T17:40:23;12.40;;;3.58;;
57055;SDS011;42945;51.718;5.324;2023-04-24T17:42:49;13.88;;;3.40;;
57055;SDS011;42945;51.718;5.324;2023-04-24T17:45:14;14.23;;;3.38;;
57055;SDS011;42945;51.718;5.324;2023-04-24T17:47:40;13.55;;;3.38;;
57055;SDS011;42945;51.718;5.324;2023-04-24T17:50:06;13.07;;;3.40;;
57055;SDS011;42945;51.718;5.324;2023-04-24T17:52:31;12.85;;;2.85;;
57055;SDS011;42945;51.718;5.324;2023-04-24T17:54:57;16.38;;;3.47;;
57055;SDS011;42945;51.718;5.324;2023-04-24T17:57:22;15.15;;;3.40;;
57055;SDS011;42945;51.718;5.324;2023-04-24T17:59:47;15.52;;;3.28;;
57055;SDS011;42945;51.718;5.324;2023-04-24T18:02:13;19.92;;;3.70;;
57055;SDS011;42945;51.718;5.324;2023-04-24T18:04:38;15.32;;;3.47;;
57055;SDS011;42945;51.718;5.324;2023-04-24T18:07:04;15.57;;;3.10;;
57055;SDS011;42945;51.718;5.324;2023-04-24T18:09:29;13.32;;;3.90;;
57055;SDS011;42945;51.718;5.324;2023-04-24T18:11:54;21.17;;;3.47;;
57055;SDS011;42945;51.718;5.324;2023-04-24T18:14:21;17.27;;;3.90;;
57055;SDS011;42945;51.718;5.324;2023-04-24T18:16:48;15.73;;;3.33;;
57055;SDS011;42945;51.718;5.324;2023-04-24T18:19:14;21.45;;;3.95;;
57055;SDS011;42945;51.718;5.324;2023-04-24T18:21:39;17.83;;;4.57;;
57055;SDS011;42945;51.718;5.324;2023-04-24T18:24:04;17.60;;;4.20;;
57055;SDS011;42945;51.718;5.324;2023-04-24T18:26:30;19.73;;;4.03;;
57055;SDS011;42945;51.718;5.324;2023-04-24T18:28:55;16.88;;;3.88;;
57055;SDS011;42945;51.718;5.324;2023-04-24T18:31:20;14.05;;;3.67;;
57055;SDS011;42945;51.718;5.324;2023-04-24T18:33:46;14.75;;;3.85;;
57055;SDS011;42945;51.718;5.324;2023-04-24T18:36:11;13.20;;;3.78;;
57055;SDS011;42945;51.718;5.324;2023-04-24T18:38:37;15.80;;;4.43;;
57055;SDS011;42945;51.718;5.324;2023-04-24T18:41:02;18.50;;;3.63;;
57055;SDS011;42945;51.718;5.324;2023-04-24T18:43:28;16.38;;;3.95;;
57055;SDS011;42945;51.718;5.324;2023-04-24T18:45:53;14.88;;;4.20;;
57055;SDS011;42945;51.718;5.324;2023-04-24T18:48:18;21.73;;;4.43;;
57055;SDS011;42945;51.718;5.324;2023-04-24T18:50:44;15.52;;;3.65;;
57055;SDS011;42945;51.718;5.324;2023-04-24T18:53:09;19.73;;;4.53;;
57055;SDS011;42945;51.718;5.324;2023-04-24T18:55:38;16.50;;;4.05;;
57055;SDS011;42945;51.718;5.324;2023-04-24T18:58:03;21.95;;;4.38;;
57055;SDS011;42945;51.718;5.324;2023-04-24T19:00:30;15.52;;;3.78;;
57055;SDS011;42945;51.718;5.324;2023-04-24T19:02:55;15.43;;;3.97;;
57055;SDS011;42945;51.718;5.324;2023-04-24T19:05:21;19.23;;;3.88;;
57055;SDS011;42945;51.718;5.324;2023-04-24T19:07:46;20.80;;;3.97;;
57055;SDS011;42945;51.718;5.324;2023-04-24T19:10:11;17.38;;;4.30;;
57055;SDS011;42945;51.718;5.324;2023-04-24T19:12:37;15.63;;;3.72;;
57055;SDS011;42945;51.718;5.324;2023-04-24T19:15:03;17.23;;;3.53;;
57055;SDS011;42945;51.718;5.324;2023-04-24T19:17:28;18.17;;;3.50;;
57055;SDS011;42945;51.718;5.324;2023-04-24T19:19:55;14.02;;;3.90;;
57055;SDS011;42945;51.718;5.324;2023-04-24T19:22:21;18.67;;;4.20;;
57055;SDS011;42945;51.718;5.324;2023-04-24T19:24:47;17.40;;;4.13;;
57055;SDS011;42945;51.718;5.324;2023-04-24T19:27:12;16.10;;;3.83;;
57055;SDS011;42945;51.718;5.324;2023-04-24T19:29:38;18.80;;;3.85;;
57055;SDS011;42945;51.718;5.324;2023-04-24T19:32:05;21.88;;;4.03;;
57055;SDS011;42945;51.718;5.324;2023-04-24T19:34:30;15.15;;;3.78;;
57055;SDS011;42945;51.718;5.324;2023-04-24T19:36:58;19.23;;;3.88;;
57055;SDS011;42945;51.718;5.324;2023-04-24T19:39:23;20.80;;;3.83;;
57055;SDS011;42945;51.718;5.324;2023-04-24T19:41:49;15.90;;;3.88;;
57055;SDS011;42945;51.718;5.324;2023-04-24T19:44:14;16.45;;;4.32;;
57055;SDS011;42945;51.718;5.324;2023-04-24T19:46:41;16.05;;;4.60;;
57055;SDS011;42945;51.718;5.324;2023-04-24T19:49:06;14.93;;;3.60;;
57055;SDS011;42945;51.718;5.324;2023-04-24T19:51:31;26.13;;;3.72;;
57055;SDS011;42945;51.718;5.324;2023-04-24T19:53:57;22.80;;;4.72;;
57055;SDS011;42945;51.718;5.324;2023-04-24T19:56:23;17.92;;;3.80;;
57055;SDS011;42945;51.718;5.324;2023-04-24T19:58:48;16.90;;;3.88;;
57055;SDS011;42945;51.718;5.324;2023-04-24T20:01:13;19.48;;;4.25;;
57055;SDS011;42945;51.718;5.324;2023-04-24T20:03:38;17.88;;;4.00;;
57055;SDS011;42945;51.718;5.324;2023-04-24T20:06:05;16.42;;;4.38;;
57055;SDS011;42945;51.718;5.324;2023-04-24T20:08:30;15.40;;;3.42;;
57055;SDS011;42945;51.718;5.324;2023-04-24T20:10:56;10.18;;;2.50;;
57055;SDS011;42945;51.718;5.324;2023-04-24T20:13:22;16.45;;;3.10;;
57055;SDS011;42945;51.718;5.324;2023-04-24T20:15:48;14.80;;;3.50;;
57055;SDS011;42945;51.718;5.324;2023-04-24T20:18:13;13.68;;;2.92;;
57055;SDS011;42945;51.718;5.324;2023-04-24T20:20:39;15.35;;;3.47;;
57055;SDS011;42945;51.718;5.324;2023-04-24T20:23:05;18.33;;;3.95;;
57055;SDS011;42945;51.718;5.324;2023-04-24T20:25:31;15.02;;;3.45;;
57055;SDS011;42945;51.718;5.324;2023-04-24T20:27:56;12.52;;;3.20;;
57055;SDS011;42945;51.718;5.324;2023-04-24T20:30:21;10.05;;;2.70;;
57055;SDS011;42945;51.718;5.324;2023-04-24T20:32:47;14.35;;;2.97;;
57055;SDS011;42945;51.718;5.324;2023-04-24T20:35:12;13.00;;;2.95;;
57055;SDS011;42945;51.718;5.324;2023-04-24T20:37:38;13.35;;;3.15;;
57055;SDS011;42945;51.718;5.324;2023-04-24T20:40:04;18.05;;;3.33;;
57055;SDS011;42945;51.718;5.324;2023-04-24T20:42:33;12.43;;;2.97;;
57055;SDS011;42945;51.718;5.324;2023-04-24T20:44:59;14.10;;;3.22;;
57055;SDS011;42945;51.718;5.324;2023-04-24T20:47:26;11.60;;;1.92;;
57055;SDS011;42945;51.718;5.324;2023-04-24T20:49:52;16.63;;;3.22;;
57055;SDS011;42945;51.718;5.324;2023-04-24T20:52:17;10.38;;;2.40;;
57055;SDS011;42945;51.718;5.324;2023-04-24T20:54:43;17.70;;;2.88;;
57055;SDS011;42945;51.718;5.324;2023-04-24T20:57:10;11.45;;;2.67;;
57055;SDS011;42945;51.718;5.324;2023-04-24T20:59:36;9.05;;;2.10;;
57055;SDS011;42945;51.718;5.324;2023-04-24T21:02:02;17.63;;;2.97;;
57055;SDS011;42945;51.718;5.324;2023-04-24T21:04:27;10.20;;;2.80;;
57055;SDS011;42945;51.718;5.324;2023-04-24T21:06:52;14.23;;;2.28;;
57055;SDS011;42945;51.718;5.324;2023-04-24T21:09:18;9.80;;;2.17;;
57055;SDS011;42945;51.718;5.324;2023-04-24T21:11:43;12.98;;;2.60;;
57055;SDS011;42945;51.718;5.324;2023-04-24T21:14:08;7.60;;;2.33;;
57055;SDS011;42945;51.718;5.324;2023-04-24T21:16:34;11.57;;;2.85;;
57055;SDS011;42945;51.718;5.324;2023-04-24T21:19:00;11.80;;;2.72;;
57055;SDS011;42945;51.718;5.324;2023-04-24T21:21:25;9.85;;;2.53;;
57055;SDS011;42945;51.718;5.324;2023-04-24T21:23:50;16.65;;;3.25;;
57055;SDS011;42945;51.718;5.324;2023-04-24T21:26:16;13.18;;;2.20;;
57055;SDS011;42945;51.718;5.324;2023-04-24T21:28:41;10.35;;;2.88;;